Aviva — 5VCM5 — position and weather

sailwx.info

Track history (hours):
 
Tides and Currents Weather Stations Pressure Air Temp Water Temp Dewpoint Dewpoint Depression Visibility Wind Speed Wind Dir Waves Ship Positions

Aviva

Last reported at 2018-Feb-21 09:17 UTC. Time now 2018-Feb-22 10:43 UTC.
Position N 28°06' W 013°43'.

Length 142 m; draft 5.4 m.

Type: Ship. MMSI: 671432000.

Date/timePositionNaut miles runAvg speedWind from/ knotsBaromVisibWave heightAir tempDewpointWater temp
2018-Feb-21 09:17N 28°06' W 013°43'32 8.9
2018-Feb-21 05:42N 28°35' W 013°28'2 8.6
2018-Feb-21 05:28N 28°37' W 013°27'4 8.8
2018-Feb-21 04:59N 28°41' W 013°25'4 8.8
2018-Feb-21 04:31N 28°45' W 013°23'5 8.9
2018-Feb-21 04:00N 28°49' W 013°21'5 9.0
2018-Feb-21 03:28N 28°53' W 013°18'5 9.1
2018-Feb-21 02:58N 28°57' W 013°16'4 9.0
2018-Feb-21 02:29N 29°01' W 013°14'  
2018-Feb-15 23:20N 36°08' W 005°26'0 0.0
2018-Feb-15 22:59N 36°08' W 005°26'0 0.0
2018-Feb-15 22:29N 36°08' W 005°26'0 0.0
2018-Feb-15 21:59N 36°08' W 005°26'0 0.0
2018-Feb-15 21:29N 36°08' W 005°26'0 0.0
2018-Feb-15 20:53N 36°08' W 005°26'0 0.0
2018-Feb-15 20:05N 36°08' W 005°26'0 0.0
2018-Feb-15 19:59N 36°08' W 005°26'0 0.0
2018-Feb-15 19:29N 36°08' W 005°26'0 0.0
2018-Feb-15 18:59N 36°08' W 005°26'0 0.0
2018-Feb-15 18:26N 36°08' W 005°26'0 0.0
2018-Feb-15 17:59N 36°08' W 005°26'0 0.0
2018-Feb-15 17:29N 36°08' W 005°26'0 0.0
2018-Feb-15 16:59N 36°08' W 005°26'0 0.0
2018-Feb-15 16:23N 36°08' W 005°26'0 0.0
2018-Feb-15 15:59N 36°08' W 005°26'0 0.0
2018-Feb-15 15:29N 36°08' W 005°26'0 0.0
2018-Feb-15 14:59N 36°08' W 005°26'0 0.0
2018-Feb-15 14:29N 36°08' W 005°26'0 0.0
2018-Feb-15 13:59N 36°08' W 005°26'0 0.0
2018-Feb-15 13:29N 36°08' W 005°26'0 0.0
2018-Feb-15 12:59N 36°08' W 005°26'0 0.0
2018-Feb-15 12:17N 36°08' W 005°26'0 0.0
2018-Feb-15 11:56N 36°08' W 005°26'0 0.0
2018-Feb-15 11:29N 36°08' W 005°26'0 0.0
2018-Feb-15 10:59N 36°08' W 005°26'0 0.0
2018-Feb-15 10:23N 36°08' W 005°26'0 0.0
2018-Feb-15 09:44N 36°08' W 005°26'0 0.0
2018-Feb-15 09:20N 36°08' W 005°26'0 0.0
2018-Feb-15 08:56N 36°08' W 005°26'0 0.0
2018-Feb-15 07:41N 36°08' W 005°26'0 0.0
2018-Feb-15 07:29N 36°08' W 005°26'0 0.0
2018-Feb-15 06:56N 36°08' W 005°26'0 0.0
2018-Feb-15 06:22N 36°08' W 005°26'0 0.0
2018-Feb-15 05:58N 36°08' W 005°26'0 0.0
2018-Feb-15 05:28N 36°08' W 005°26'0 0.0
2018-Feb-15 04:58N 36°08' W 005°26'0 0.0
2018-Feb-15 04:28N 36°08' W 005°26'0 0.0
2018-Feb-15 03:58N 36°08' W 005°26'0 0.0
2018-Feb-15 03:28N 36°08' W 005°26'0 0.0
2018-Feb-15 02:58N 36°08' W 005°26'0 0.0
2018-Feb-15 02:28N 36°08' W 005°26'0 0.0
2018-Feb-15 01:58N 36°08' W 005°26'0 0.0
2018-Feb-15 01:28N 36°08' W 005°26'0 0.1
2018-Feb-15 01:00N 36°08' W 005°26'2 3.0
2018-Feb-15 00:30N 36°09' W 005°24'3 5.7
2018-Feb-15 00:01N 36°06' W 005°25'0 0.4
2018-Feb-14 23:28N 36°06' W 005°24'0 0.1
2018-Feb-14 22:58N 36°06' W 005°24'0 0.0
2018-Feb-14 22:28N 36°06' W 005°24'0 0.0
2018-Feb-14 21:58N 36°06' W 005°24'0 0.0
2018-Feb-14 21:28N 36°06' W 005°24'0 0.0
2018-Feb-14 20:58N 36°06' W 005°24'0 0.0
2018-Feb-14 20:28N 36°06' W 005°24'0 0.0
2018-Feb-14 19:58N 36°06' W 005°24'0 0.0
2018-Feb-14 19:28N 36°06' W 005°24'0 0.1
2018-Feb-14 18:58N 36°06' W 005°24'0 0.0
2018-Feb-14 18:31N 36°06' W 005°24'0 0.0
2018-Feb-14 18:01N 36°06' W 005°24'0 0.0
2018-Feb-14 17:31N 36°06' W 005°24'0 0.0
2018-Feb-14 17:01N 36°06' W 005°24'0 0.0
2018-Feb-14 16:31N 36°06' W 005°24'0 0.0
2018-Feb-14 15:58N 36°06' W 005°24'0 0.0
2018-Feb-14 15:28N 36°06' W 005°24'0 0.0
2018-Feb-14 15:01N 36°06' W 005°24'0 0.0
2018-Feb-14 14:24N 36°06' W 005°24'0 0.1
2018-Feb-14 14:00N 36°06' W 005°24'0 0.0
2018-Feb-14 13:27N 36°06' W 005°24'0 0.1
2018-Feb-14 13:00N 36°06' W 005°24'0 0.0
2018-Feb-14 12:27N 36°06' W 005°24'0 0.0
2018-Feb-14 12:00N 36°06' W 005°24'0 0.1
2018-Feb-14 11:27N 36°06' W 005°24'0 0.0
2018-Feb-14 11:00N 36°06' W 005°24'0 0.0
2018-Feb-14 10:27N 36°06' W 005°24'0 0.0
2018-Feb-14 10:00N 36°06' W 005°24'0 0.1
2018-Feb-14 09:30N 36°06' W 005°24'0 0.0
2018-Feb-14 09:00N 36°06' W 005°24'0 0.0
2018-Feb-14 08:30N 36°06' W 005°24'0 0.0
2018-Feb-14 08:00N 36°06' W 005°24'0 0.0
2018-Feb-14 07:24N 36°06' W 005°24'0 0.1
2018-Feb-14 07:00N 36°06' W 005°24'0 0.0
2018-Feb-14 06:30N 36°06' W 005°24'0 0.1
2018-Feb-14 06:00N 36°06' W 005°24'0 0.1
2018-Feb-14 05:30N 36°06' W 005°24'0 0.0
2018-Feb-14 05:00N 36°06' W 005°24'0 0.0
2018-Feb-14 04:30N 36°06' W 005°24'0 0.0
2018-Feb-14 04:00N 36°06' W 005°24'0 0.0
2018-Feb-14 03:27N 36°06' W 005°24'0 0.1
2018-Feb-14 02:57N 36°06' W 005°24'0 0.1
2018-Feb-14 02:30N 36°06' W 005°24'0 0.1
2018-Feb-14 01:57N 36°06' W 005°24'0 0.1
2018-Feb-14 01:21N 36°06' W 005°24'0 0.2
2018-Feb-14 01:00N 36°06' W 005°24'0 0.0
2018-Feb-14 00:30N 36°06' W 005°24'0 0.1
2018-Feb-14 00:00N 36°06' W 005°24'0 0.0
2018-Feb-13 23:21N 36°06' W 005°24'0 0.1
2018-Feb-13 23:00N 36°06' W 005°24'0 0.0
2018-Feb-13 22:27N 36°06' W 005°24'0 0.0
2018-Feb-13 21:51N 36°06' W 005°24'0 0.0
2018-Feb-13 21:30N 36°06' W 005°24'0 0.1
2018-Feb-13 21:00N 36°06' W 005°24'0 0.1
2018-Feb-13 20:30N 36°06' W 005°24'0 0.2
2018-Feb-13 19:57N 36°06' W 005°24'0 0.1
2018-Feb-13 19:30N 36°06' W 005°24'0 0.0
2018-Feb-13 18:45N 36°06' W 005°24'0 0.1
2018-Feb-13 18:27N 36°06' W 005°24'0 0.1
2018-Feb-13 17:57N 36°06' W 005°24'0 0.0
2018-Feb-13 17:27N 36°06' W 005°24'0 0.1
2018-Feb-13 16:57N 36°06' W 005°24'0 0.1
2018-Feb-13 16:15N 36°06' W 005°24'0 0.1
2018-Feb-13 16:00N 36°06' W 005°24'0 0.0
2018-Feb-13 15:30N 36°06' W 005°24'0 0.0
2018-Feb-13 14:54N 36°06' W 005°24'0 0.0
2018-Feb-13 14:30N 36°06' W 005°24'0 0.0
2018-Feb-13 14:00N 36°06' W 005°24'0 0.0
2018-Feb-13 13:24N 36°06' W 005°24'0 0.0
2018-Feb-13 13:00N 36°06' W 005°24'0 0.1
2018-Feb-13 12:27N 36°06' W 005°24'0 0.0
2018-Feb-13 11:51N 36°06' W 005°24'0 0.0
2018-Feb-13 11:24N 36°06' W 005°24'0 0.0
2018-Feb-13 11:00N 36°06' W 005°24'0 0.0
2018-Feb-13 10:18N 36°06' W 005°24'0 0.0
2018-Feb-13 10:00N 36°06' W 005°24'0 0.1
2018-Feb-13 09:24N 36°06' W 005°24'0 0.0
2018-Feb-13 09:00N 36°06' W 005°24'0 0.1
2018-Feb-13 08:30N 36°06' W 005°24'0 0.0
2018-Feb-13 07:54N 36°06' W 005°24'0 0.2
2018-Feb-13 07:30N 36°06' W 005°24'0 0.0
2018-Feb-13 07:00N 36°06' W 005°24'0 0.0
2018-Feb-13 06:30N 36°06' W 005°24'0 0.0
2018-Feb-13 06:00N 36°06' W 005°24'0 0.0
2018-Feb-13 05:30N 36°06' W 005°24'0 0.0
2018-Feb-13 05:00N 36°06' W 005°24'0 0.0
2018-Feb-13 04:30N 36°06' W 005°24'0 0.0
2018-Feb-13 04:00N 36°06' W 005°24'0 0.0
2018-Feb-13 03:30N 36°06' W 005°24'0 0.0
2018-Feb-13 03:00N 36°06' W 005°24'0 0.0
2018-Feb-13 02:30N 36°06' W 005°24'0 0.0
2018-Feb-13 02:00N 36°06' W 005°24'0 0.0
2018-Feb-13 01:30N 36°06' W 005°24'0 0.1
2018-Feb-13 01:00N 36°06' W 005°24'0 0.0
2018-Feb-13 00:30N 36°06' W 005°24'0 0.0
2018-Feb-13 00:00N 36°06' W 005°24'0 0.0
2018-Feb-12 23:30N 36°06' W 005°24'0 0.0
2018-Feb-12 23:00N 36°06' W 005°24'0 0.1
2018-Feb-12 22:30N 36°06' W 005°24'0 0.1
2018-Feb-12 22:00N 36°06' W 005°24'0 0.0
2018-Feb-12 21:27N 36°06' W 005°24'0 0.1
2018-Feb-12 21:00N 36°06' W 005°24'0 0.1
2018-Feb-12 20:30N 36°06' W 005°24'0 0.0
2018-Feb-12 19:54N 36°06' W 005°24'0 0.0
2018-Feb-12 19:30N 36°06' W 005°24'0 0.1
2018-Feb-12 18:57N 36°06' W 005°24'0 0.1
2018-Feb-12 18:21N 36°06' W 005°24'0 0.0
2018-Feb-12 17:57N 36°06' W 005°24'0 0.0
2018-Feb-12 17:30N 36°06' W 005°24'0 0.0
2018-Feb-12 16:57N 36°06' W 005°24'0 0.0
2018-Feb-12 16:27N 36°06' W 005°24'0 0.0
2018-Feb-12 16:00N 36°06' W 005°24'0 0.0
2018-Feb-12 15:15N 36°06' W 005°24'0 0.1
2018-Feb-12 14:54N 36°06' W 005°24'0 0.0
2018-Feb-12 14:06N 36°06' W 005°24'0 0.1
2018-Feb-12 13:51N 36°06' W 005°24'0 0.0
2018-Feb-12 13:30N 36°06' W 005°24'0 0.0
2018-Feb-12 12:57N 36°06' W 005°24'0 0.1
2018-Feb-12 12:30N 36°06' W 005°24'0 0.1
2018-Feb-12 11:57N 36°06' W 005°24'0 0.0
2018-Feb-12 11:27N 36°06' W 005°24'0 0.1
2018-Feb-12 11:00N 36°06' W 005°24'0 0.1
2018-Feb-12 10:30N 36°06' W 005°24'0 0.0
2018-Feb-12 10:00N 36°06' W 005°24'0 0.1
2018-Feb-12 09:30N 36°06' W 005°24'0 0.0
2018-Feb-12 09:00N 36°06' W 005°24'0 0.1
2018-Feb-12 08:30N 36°06' W 005°24'0 0.0
2018-Feb-12 07:45N 36°06' W 005°24'0 0.1
2018-Feb-12 07:30N 36°06' W 005°24'0 0.0
2018-Feb-12 06:57N 36°06' W 005°24'0 0.1
2018-Feb-12 06:30N 36°06' W 005°24'0 0.1
2018-Feb-12 06:00N 36°06' W 005°24'0 0.0
2018-Feb-12 05:30N 36°06' W 005°24'0 0.0
2018-Feb-12 05:00N 36°06' W 005°24'0 0.1
2018-Feb-12 04:30N 36°06' W 005°24'0 0.0
2018-Feb-12 04:00N 36°06' W 005°24'0 0.0
2018-Feb-12 03:30N 36°06' W 005°24'0 0.1
2018-Feb-12 02:54N 36°06' W 005°24'0 0.1
2018-Feb-12 02:12N 36°06' W 005°24'0 0.0
2018-Feb-12 02:00N 36°06' W 005°24'0 0.0
2018-Feb-12 01:30N 36°06' W 005°24'0 0.1
2018-Feb-12 01:00N 36°06' W 005°24'0 0.0
2018-Feb-12 00:18N 36°06' W 005°24'0 0.1
2018-Feb-12 00:00N 36°06' W 005°24'0 0.0
2018-Feb-11 23:30N 36°06' W 005°24'0 0.0
2018-Feb-11 23:00N 36°06' W 005°24'0 0.0
2018-Feb-11 22:27N 36°06' W 005°24'0 0.0
2018-Feb-11 21:57N 36°06' W 005°24'0 0.0
2018-Feb-11 21:24N 36°06' W 005°24'0 0.1
2018-Feb-11 20:57N 36°06' W 005°24'0 0.0
2018-Feb-11 20:30N 36°06' W 005°24'0 0.0
2018-Feb-11 20:00N 36°06' W 005°24'0 0.0
2018-Feb-11 19:30N 36°06' W 005°24'0 0.0
2018-Feb-11 19:00N 36°06' W 005°24'0 0.1
2018-Feb-11 18:15N 36°06' W 005°24'0 0.0
2018-Feb-11 18:00N 36°06' W 005°24'0 0.0
2018-Feb-11 17:27N 36°06' W 005°24'0 0.0
2018-Feb-11 16:57N 36°06' W 005°24'0 0.0
2018-Feb-11 16:27N 36°06' W 005°24'0 0.0
2018-Feb-11 15:57N 36°06' W 005°24'0 0.1
2018-Feb-11 15:30N 36°06' W 005°24'0 0.0
2018-Feb-11 14:57N 36°06' W 005°24'0 0.0
2018-Feb-11 14:30N 36°06' W 005°24'0 0.1
2018-Feb-11 14:00N 36°06' W 005°24'0 0.0
2018-Feb-11 13:21N 36°06' W 005°24'0 0.0
2018-Feb-11 13:00N 36°06' W 005°24'0 0.1
2018-Feb-11 12:27N 36°06' W 005°24'0 0.1
2018-Feb-11 11:57N 36°06' W 005°24'0 0.0
2018-Feb-11 11:27N 36°06' W 005°24'0 0.1
2018-Feb-11 11:00N 36°06' W 005°24'0 0.3
2018-Feb-11 10:30N 36°06' W 005°24'0 0.1
2018-Feb-11 10:00N 36°06' W 005°24'0 0.3
2018-Feb-11 09:30N 36°06' W 005°24'  
Track history (hours):
 
Tides and Currents Weather Stations Pressure Air Temp Water Temp Dewpoint Dewpoint Depression Visibility Wind Speed Wind Dir Waves Ship Positions

Aviva

Last reported at 2018-Feb-21 09:17 UTC. Time now 2018-Feb-22 10:43 UTC.
Position N 28°06' W 013°43'.

Length 142 m; draft 5.4 m.

Type: Ship. MMSI: 671432000.

Date/timePositionNaut miles runAvg speedWind from/ knotsBaromVisibWave heightAir tempDewpointWater temp
2018-Feb-21 09:17N 28°06' W 013°43'32 8.9
2018-Feb-21 05:42N 28°35' W 013°28'2 8.6
2018-Feb-21 05:28N 28°37' W 013°27'4 8.8
2018-Feb-21 04:59N 28°41' W 013°25'4 8.8
2018-Feb-21 04:31N 28°45' W 013°23'5 8.9
2018-Feb-21 04:00N 28°49' W 013°21'5 9.0
2018-Feb-21 03:28N 28°53' W 013°18'5 9.1
2018-Feb-21 02:58N 28°57' W 013°16'4 9.0
2018-Feb-21 02:29N 29°01' W 013°14'  
2018-Feb-15 23:20N 36°08' W 005°26'0 0.0
2018-Feb-15 22:59N 36°08' W 005°26'0 0.0
2018-Feb-15 22:29N 36°08' W 005°26'0 0.0
2018-Feb-15 21:59N 36°08' W 005°26'0 0.0
2018-Feb-15 21:29N 36°08' W 005°26'0 0.0
2018-Feb-15 20:53N 36°08' W 005°26'0 0.0
2018-Feb-15 20:05N 36°08' W 005°26'0 0.0
2018-Feb-15 19:59N 36°08' W 005°26'0 0.0
2018-Feb-15 19:29N 36°08' W 005°26'0 0.0
2018-Feb-15 18:59N 36°08' W 005°26'0 0.0
2018-Feb-15 18:26N 36°08' W 005°26'0 0.0
2018-Feb-15 17:59N 36°08' W 005°26'0 0.0
2018-Feb-15 17:29N 36°08' W 005°26'0 0.0
2018-Feb-15 16:59N 36°08' W 005°26'0 0.0
2018-Feb-15 16:23N 36°08' W 005°26'0 0.0
2018-Feb-15 15:59N 36°08' W 005°26'0 0.0
2018-Feb-15 15:29N 36°08' W 005°26'0 0.0
2018-Feb-15 14:59N 36°08' W 005°26'0 0.0
2018-Feb-15 14:29N 36°08' W 005°26'0 0.0
2018-Feb-15 13:59N 36°08' W 005°26'0 0.0
2018-Feb-15 13:29N 36°08' W 005°26'0 0.0
2018-Feb-15 12:59N 36°08' W 005°26'0 0.0
2018-Feb-15 12:17N 36°08' W 005°26'0 0.0
2018-Feb-15 11:56N 36°08' W 005°26'0 0.0
2018-Feb-15 11:29N 36°08' W 005°26'0 0.0
2018-Feb-15 10:59N 36°08' W 005°26'0 0.0
2018-Feb-15 10:23N 36°08' W 005°26'0 0.0
2018-Feb-15 09:44N 36°08' W 005°26'0 0.0
2018-Feb-15 09:20N 36°08' W 005°26'0 0.0
2018-Feb-15 08:56N 36°08' W 005°26'0 0.0
2018-Feb-15 07:41N 36°08' W 005°26'0 0.0
2018-Feb-15 07:29N 36°08' W 005°26'0 0.0
2018-Feb-15 06:56N 36°08' W 005°26'0 0.0
2018-Feb-15 06:22N 36°08' W 005°26'0 0.0
2018-Feb-15 05:58N 36°08' W 005°26'0 0.0
2018-Feb-15 05:28N 36°08' W 005°26'0 0.0
2018-Feb-15 04:58N 36°08' W 005°26'0 0.0
2018-Feb-15 04:28N 36°08' W 005°26'0 0.0
2018-Feb-15 03:58N 36°08' W 005°26'0 0.0
2018-Feb-15 03:28N 36°08' W 005°26'0 0.0
2018-Feb-15 02:58N 36°08' W 005°26'0 0.0
2018-Feb-15 02:28N 36°08' W 005°26'0 0.0
2018-Feb-15 01:58N 36°08' W 005°26'0 0.0
2018-Feb-15 01:28N 36°08' W 005°26'0 0.1
2018-Feb-15 01:00N 36°08' W 005°26'2 3.0
2018-Feb-15 00:30N 36°09' W 005°24'3 5.7
2018-Feb-15 00:01N 36°06' W 005°25'0 0.4
2018-Feb-14 23:28N 36°06' W 005°24'0 0.1
2018-Feb-14 22:58N 36°06' W 005°24'0 0.0
2018-Feb-14 22:28N 36°06' W 005°24'0 0.0
2018-Feb-14 21:58N 36°06' W 005°24'0 0.0
2018-Feb-14 21:28N 36°06' W 005°24'0 0.0
2018-Feb-14 20:58N 36°06' W 005°24'0 0.0
2018-Feb-14 20:28N 36°06' W 005°24'0 0.0
2018-Feb-14 19:58N 36°06' W 005°24'0 0.0
2018-Feb-14 19:28N 36°06' W 005°24'0 0.1
2018-Feb-14 18:58N 36°06' W 005°24'0 0.0
2018-Feb-14 18:31N 36°06' W 005°24'0 0.0
2018-Feb-14 18:01N 36°06' W 005°24'0 0.0
2018-Feb-14 17:31N 36°06' W 005°24'0 0.0
2018-Feb-14 17:01N 36°06' W 005°24'0 0.0
2018-Feb-14 16:31N 36°06' W 005°24'0 0.0
2018-Feb-14 15:58N 36°06' W 005°24'0 0.0
2018-Feb-14 15:28N 36°06' W 005°24'0 0.0
2018-Feb-14 15:01N 36°06' W 005°24'0 0.0
2018-Feb-14 14:24N 36°06' W 005°24'0 0.1
2018-Feb-14 14:00N 36°06' W 005°24'0 0.0
2018-Feb-14 13:27N 36°06' W 005°24'0 0.1
2018-Feb-14 13:00N 36°06' W 005°24'0 0.0
2018-Feb-14 12:27N 36°06' W 005°24'0 0.0
2018-Feb-14 12:00N 36°06' W 005°24'0 0.1
2018-Feb-14 11:27N 36°06' W 005°24'0 0.0
2018-Feb-14 11:00N 36°06' W 005°24'0 0.0
2018-Feb-14 10:27N 36°06' W 005°24'0 0.0
2018-Feb-14 10:00N 36°06' W 005°24'0 0.1
2018-Feb-14 09:30N 36°06' W 005°24'0 0.0
2018-Feb-14 09:00N 36°06' W 005°24'0 0.0
2018-Feb-14 08:30N 36°06' W 005°24'0 0.0
2018-Feb-14 08:00N 36°06' W 005°24'0 0.0
2018-Feb-14 07:24N 36°06' W 005°24'0 0.1
2018-Feb-14 07:00N 36°06' W 005°24'0 0.0
2018-Feb-14 06:30N 36°06' W 005°24'0 0.1
2018-Feb-14 06:00N 36°06' W 005°24'0 0.1
2018-Feb-14 05:30N 36°06' W 005°24'0 0.0
2018-Feb-14 05:00N 36°06' W 005°24'0 0.0
2018-Feb-14 04:30N 36°06' W 005°24'0 0.0
2018-Feb-14 04:00N 36°06' W 005°24'0 0.0
2018-Feb-14 03:27N 36°06' W 005°24'0 0.1
2018-Feb-14 02:57N 36°06' W 005°24'0 0.1
2018-Feb-14 02:30N 36°06' W 005°24'0 0.1
2018-Feb-14 01:57N 36°06' W 005°24'0 0.1
2018-Feb-14 01:21N 36°06' W 005°24'0 0.2
2018-Feb-14 01:00N 36°06' W 005°24'0 0.0
2018-Feb-14 00:30N 36°06' W 005°24'0 0.1
2018-Feb-14 00:00N 36°06' W 005°24'0 0.0
2018-Feb-13 23:21N 36°06' W 005°24'0 0.1
2018-Feb-13 23:00N 36°06' W 005°24'0 0.0
2018-Feb-13 22:27N 36°06' W 005°24'0 0.0
2018-Feb-13 21:51N 36°06' W 005°24'0 0.0
2018-Feb-13 21:30N 36°06' W 005°24'0 0.1
2018-Feb-13 21:00N 36°06' W 005°24'0 0.1
2018-Feb-13 20:30N 36°06' W 005°24'0 0.2
2018-Feb-13 19:57N 36°06' W 005°24'0 0.1
2018-Feb-13 19:30N 36°06' W 005°24'0 0.0
2018-Feb-13 18:45N 36°06' W 005°24'0 0.1
2018-Feb-13 18:27N 36°06' W 005°24'0 0.1
2018-Feb-13 17:57N 36°06' W 005°24'0 0.0
2018-Feb-13 17:27N 36°06' W 005°24'0 0.1
2018-Feb-13 16:57N 36°06' W 005°24'0 0.1
2018-Feb-13 16:15N 36°06' W 005°24'0 0.1
2018-Feb-13 16:00N 36°06' W 005°24'0 0.0
2018-Feb-13 15:30N 36°06' W 005°24'0 0.0
2018-Feb-13 14:54N 36°06' W 005°24'0 0.0
2018-Feb-13 14:30N 36°06' W 005°24'0 0.0
2018-Feb-13 14:00N 36°06' W 005°24'0 0.0
2018-Feb-13 13:24N 36°06' W 005°24'0 0.0
2018-Feb-13 13:00N 36°06' W 005°24'0 0.1
2018-Feb-13 12:27N 36°06' W 005°24'0 0.0
2018-Feb-13 11:51N 36°06' W 005°24'0 0.0
2018-Feb-13 11:24N 36°06' W 005°24'0 0.0
2018-Feb-13 11:00N 36°06' W 005°24'0 0.0
2018-Feb-13 10:18N 36°06' W 005°24'0 0.0
2018-Feb-13 10:00N 36°06' W 005°24'0 0.1
2018-Feb-13 09:24N 36°06' W 005°24'0 0.0
2018-Feb-13 09:00N 36°06' W 005°24'0 0.1
2018-Feb-13 08:30N 36°06' W 005°24'0 0.0
2018-Feb-13 07:54N 36°06' W 005°24'0 0.2
2018-Feb-13 07:30N 36°06' W 005°24'0 0.0
2018-Feb-13 07:00N 36°06' W 005°24'0 0.0
2018-Feb-13 06:30N 36°06' W 005°24'0 0.0
2018-Feb-13 06:00N 36°06' W 005°24'0 0.0
2018-Feb-13 05:30N 36°06' W 005°24'0 0.0
2018-Feb-13 05:00N 36°06' W 005°24'0 0.0
2018-Feb-13 04:30N 36°06' W 005°24'0 0.0
2018-Feb-13 04:00N 36°06' W 005°24'0 0.0
2018-Feb-13 03:30N 36°06' W 005°24'0 0.0
2018-Feb-13 03:00N 36°06' W 005°24'0 0.0
2018-Feb-13 02:30N 36°06' W 005°24'0 0.0
2018-Feb-13 02:00N 36°06' W 005°24'0 0.0
2018-Feb-13 01:30N 36°06' W 005°24'0 0.1
2018-Feb-13 01:00N 36°06' W 005°24'0 0.0
2018-Feb-13 00:30N 36°06' W 005°24'0 0.0
2018-Feb-13 00:00N 36°06' W 005°24'0 0.0
2018-Feb-12 23:30N 36°06' W 005°24'0 0.0
2018-Feb-12 23:00N 36°06' W 005°24'0 0.1
2018-Feb-12 22:30N 36°06' W 005°24'0 0.1
2018-Feb-12 22:00N 36°06' W 005°24'0 0.0
2018-Feb-12 21:27N 36°06' W 005°24'0 0.1
2018-Feb-12 21:00N 36°06' W 005°24'0 0.1
2018-Feb-12 20:30N 36°06' W 005°24'0 0.0
2018-Feb-12 19:54N 36°06' W 005°24'0 0.0
2018-Feb-12 19:30N 36°06' W 005°24'0 0.1
2018-Feb-12 18:57N 36°06' W 005°24'0 0.1
2018-Feb-12 18:21N 36°06' W 005°24'0 0.0
2018-Feb-12 17:57N 36°06' W 005°24'0 0.0
2018-Feb-12 17:30N 36°06' W 005°24'0 0.0
2018-Feb-12 16:57N 36°06' W 005°24'0 0.0
2018-Feb-12 16:27N 36°06' W 005°24'0 0.0
2018-Feb-12 16:00N 36°06' W 005°24'0 0.0
2018-Feb-12 15:15N 36°06' W 005°24'0 0.1
2018-Feb-12 14:54N 36°06' W 005°24'0 0.0
2018-Feb-12 14:06N 36°06' W 005°24'0 0.1
2018-Feb-12 13:51N 36°06' W 005°24'0 0.0
2018-Feb-12 13:30N 36°06' W 005°24'0 0.0
2018-Feb-12 12:57N 36°06' W 005°24'0 0.1
2018-Feb-12 12:30N 36°06' W 005°24'0 0.1
2018-Feb-12 11:57N 36°06' W 005°24'0 0.0
2018-Feb-12 11:27N 36°06' W 005°24'0 0.1
2018-Feb-12 11:00N 36°06' W 005°24'0 0.1
2018-Feb-12 10:30N 36°06' W 005°24'0 0.0
2018-Feb-12 10:00N 36°06' W 005°24'0 0.1
2018-Feb-12 09:30N 36°06' W 005°24'0 0.0
2018-Feb-12 09:00N 36°06' W 005°24'0 0.1
2018-Feb-12 08:30N 36°06' W 005°24'0 0.0
2018-Feb-12 07:45N 36°06' W 005°24'0 0.1
2018-Feb-12 07:30N 36°06' W 005°24'0 0.0
2018-Feb-12 06:57N 36°06' W 005°24'0 0.1
2018-Feb-12 06:30N 36°06' W 005°24'0 0.1
2018-Feb-12 06:00N 36°06' W 005°24'0 0.0
2018-Feb-12 05:30N 36°06' W 005°24'0 0.0
2018-Feb-12 05:00N 36°06' W 005°24'0 0.1
2018-Feb-12 04:30N 36°06' W 005°24'0 0.0
2018-Feb-12 04:00N 36°06' W 005°24'0 0.0
2018-Feb-12 03:30N 36°06' W 005°24'0 0.1
2018-Feb-12 02:54N 36°06' W 005°24'0 0.1
2018-Feb-12 02:12N 36°06' W 005°24'0 0.0
2018-Feb-12 02:00N 36°06' W 005°24'0 0.0
2018-Feb-12 01:30N 36°06' W 005°24'0 0.1
2018-Feb-12 01:00N 36°06' W 005°24'0 0.0
2018-Feb-12 00:18N 36°06' W 005°24'0 0.1
2018-Feb-12 00:00N 36°06' W 005°24'0 0.0
2018-Feb-11 23:30N 36°06' W 005°24'0 0.0
2018-Feb-11 23:00N 36°06' W 005°24'0 0.0
2018-Feb-11 22:27N 36°06' W 005°24'0 0.0
2018-Feb-11 21:57N 36°06' W 005°24'0 0.0
2018-Feb-11 21:24N 36°06' W 005°24'0 0.1
2018-Feb-11 20:57N 36°06' W 005°24'0 0.0
2018-Feb-11 20:30N 36°06' W 005°24'0 0.0
2018-Feb-11 20:00N 36°06' W 005°24'0 0.0
2018-Feb-11 19:30N 36°06' W 005°24'0 0.0
2018-Feb-11 19:00N 36°06' W 005°24'0 0.1
2018-Feb-11 18:15N 36°06' W 005°24'0 0.0
2018-Feb-11 18:00N 36°06' W 005°24'0 0.0
2018-Feb-11 17:27N 36°06' W 005°24'0 0.0
2018-Feb-11 16:57N 36°06' W 005°24'0 0.0
2018-Feb-11 16:27N 36°06' W 005°24'0 0.0
2018-Feb-11 15:57N 36°06' W 005°24'0 0.1
2018-Feb-11 15:30N 36°06' W 005°24'0 0.0
2018-Feb-11 14:57N 36°06' W 005°24'0 0.0
2018-Feb-11 14:30N 36°06' W 005°24'0 0.1
2018-Feb-11 14:00N 36°06' W 005°24'0 0.0
2018-Feb-11 13:21N 36°06' W 005°24'0 0.0
2018-Feb-11 13:00N 36°06' W 005°24'0 0.1
2018-Feb-11 12:27N 36°06' W 005°24'0 0.1
2018-Feb-11 11:57N 36°06' W 005°24'0 0.0
2018-Feb-11 11:27N 36°06' W 005°24'0 0.1
2018-Feb-11 11:00N 36°06' W 005°24'0 0.3
2018-Feb-11 10:30N 36°06' W 005°24'0 0.1
2018-Feb-11 10:00N 36°06' W 005°24'0 0.3
2018-Feb-11 09:30N 36°06' W 005°24'  

Dump ship's entire track history